Honghai — XUBU8 — position and weather

sailwx.info

Track history (hours):
 
Tides and Currents Weather Stations Pressure Air Temp Water Temp Dewpoint Dewpoint Depression Visibility Wind Speed Wind Dir Waves Ship Positions

Honghai

Last reported at 2015-Aug-27 22:26 UTC. Time now 2015-Aug-31 13:24 UTC.
Position N 34°14' E 134°60'.

Length 72 m; draft 4 m.

Type: Cargo ship. MMSI: 515501000.

Date/timePositionNaut miles runAvg speedWind from/ knotsBaromVisibWave heightAir tempDewpointWater temp
2015-Aug-27 22:26N 34°14' E 134°60'235 7.5
2015-Aug-26 15:19N 35°04' E 139°38'7 8.7
2015-Aug-26 14:33N 35°09' E 139°44'9 8.5
2015-Aug-26 13:33N 35°17' E 139°45'8 8.1
2015-Aug-26 12:33N 35°25' E 139°45'4 3.8
2015-Aug-26 11:33N 35°28' E 139°48'0 0.0
2015-Aug-26 10:33N 35°28' E 139°48'0 0.0
2015-Aug-26 09:33N 35°28' E 139°48'0 0.0
2015-Aug-26 08:33N 35°28' E 139°48'0 0.0
2015-Aug-26 07:33N 35°28' E 139°48'0 0.0
2015-Aug-26 06:33N 35°28' E 139°48'0 0.0
2015-Aug-26 05:30N 35°28' E 139°48'0 0.0
2015-Aug-26 04:33N 35°28' E 139°48'0 0.0
2015-Aug-26 03:33N 35°28' E 139°48'0 0.0
2015-Aug-26 02:33N 35°28' E 139°48'0 0.0
2015-Aug-26 01:33N 35°28' E 139°48'0 0.0
2015-Aug-26 00:33N 35°28' E 139°48'0 0.0
2015-Aug-25 23:33N 35°28' E 139°48'0 0.0
2015-Aug-25 22:33N 35°28' E 139°48'0 0.0
2015-Aug-25 21:32N 35°28' E 139°48'0 0.0
2015-Aug-25 20:32N 35°28' E 139°48'0 0.0
2015-Aug-25 19:32N 35°28' E 139°48'0 0.0
2015-Aug-25 18:32N 35°28' E 139°48'0 0.0
2015-Aug-25 17:32N 35°28' E 139°48'0 0.0
2015-Aug-25 16:32N 35°28' E 139°48'0 0.0
2015-Aug-25 15:32N 35°28' E 139°48'0 0.0
2015-Aug-25 14:32N 35°28' E 139°48'0 0.0
2015-Aug-25 13:32N 35°28' E 139°48'0 0.0
2015-Aug-25 12:32N 35°28' E 139°48'0 0.0
2015-Aug-25 11:32N 35°28' E 139°48'0 0.0
2015-Aug-25 10:29N 35°28' E 139°48'0 0.0
2015-Aug-25 09:29N 35°28' E 139°48'0 0.0
2015-Aug-25 08:29N 35°28' E 139°48'0 0.0
2015-Aug-25 07:29N 35°28' E 139°48'0 0.0
2015-Aug-25 06:29N 35°28' E 139°48'4 3.8
2015-Aug-25 05:34N 35°31' E 139°45'0 0.0
2015-Aug-25 04:31N 35°31' E 139°45'0 0.0
2015-Aug-25 03:31N 35°31' E 139°45'0 0.0
2015-Aug-25 02:31N 35°31' E 139°45'0 0.0
2015-Aug-25 01:31N 35°31' E 139°45'0 0.0
2015-Aug-25 00:31N 35°31' E 139°45'0 0.0
2015-Aug-24 23:31N 35°31' E 139°45'0 0.0
2015-Aug-24 22:31N 35°31' E 139°45'0 0.0
2015-Aug-24 21:31N 35°31' E 139°45'0 0.0
2015-Aug-24 20:31N 35°31' E 139°45'0 0.0
2015-Aug-24 19:31N 35°31' E 139°45'0 0.0
2015-Aug-24 18:31N 35°31' E 139°45'0 0.0
2015-Aug-24 17:31N 35°31' E 139°45'0 0.0
2015-Aug-24 16:31N 35°31' E 139°45'0 0.0
2015-Aug-24 15:31N 35°31' E 139°45'0 0.0
2015-Aug-24 14:31N 35°31' E 139°45'0 0.0
2015-Aug-24 13:31N 35°31' E 139°45'0 0.0
2015-Aug-24 12:31N 35°31' E 139°45'0 0.0
2015-Aug-24 11:31N 35°31' E 139°45'0 0.0
2015-Aug-24 10:28N 35°31' E 139°45'0 0.0
2015-Aug-24 09:31N 35°31' E 139°45'0 0.0
2015-Aug-24 08:28N 35°31' E 139°45'0 0.0
2015-Aug-24 07:31N 35°31' E 139°45'0 0.0
2015-Aug-24 06:31N 35°31' E 139°45'0 0.0
2015-Aug-24 05:31N 35°31' E 139°45'0 0.0
2015-Aug-24 04:31N 35°31' E 139°45'0 0.0
2015-Aug-24 03:31N 35°31' E 139°45'0 0.0
2015-Aug-24 02:31N 35°31' E 139°45'0 0.0
2015-Aug-24 01:31N 35°31' E 139°45'0 0.0
2015-Aug-24 00:31N 35°31' E 139°45'0 0.0
2015-Aug-23 23:28N 35°31' E 139°45'0 0.0
2015-Aug-23 22:31N 35°31' E 139°45'1 0.6
2015-Aug-23 21:33N 35°30' E 139°45'4 3.7
2015-Aug-23 20:33N 35°27' E 139°43'0 0.0
2015-Aug-23 19:33N 35°27' E 139°43'0 0.0
2015-Aug-23 18:33N 35°27' E 139°43'0 0.0
2015-Aug-23 17:33N 35°27' E 139°43'0 0.0
2015-Aug-23 16:30N 35°27' E 139°43'0 0.0
2015-Aug-23 15:33N 35°27' E 139°43'0 0.0
2015-Aug-23 14:33N 35°27' E 139°43'0 0.0
2015-Aug-23 13:33N 35°27' E 139°43'0 0.0
2015-Aug-23 12:33N 35°27' E 139°43'0 0.0
2015-Aug-23 11:33N 35°27' E 139°43'0 0.0
2015-Aug-23 10:33N 35°27' E 139°43'0 0.0
2015-Aug-23 09:30N 35°27' E 139°43'0 0.0
2015-Aug-23 08:32N 35°27' E 139°43'0 0.0
2015-Aug-23 07:32N 35°27' E 139°43'0 0.0
2015-Aug-23 06:32N 35°27' E 139°43'0 0.0
2015-Aug-23 05:32N 35°27' E 139°43'0 0.0
2015-Aug-23 04:29N 35°27' E 139°43'0 0.0
2015-Aug-23 03:32N 35°27' E 139°43'0 0.0
2015-Aug-23 02:32N 35°27' E 139°43'0 0.0
2015-Aug-23 01:32N 35°27' E 139°43'0 0.0
2015-Aug-23 00:32N 35°27' E 139°43'0 0.1
2015-Aug-22 23:32N 35°27' E 139°43'0 0.0
2015-Aug-22 22:23N 35°27' E 139°43'0 0.0
2015-Aug-22 21:26N 35°27' E 139°43'0 0.0
2015-Aug-22 20:32N 35°27' E 139°43'0 0.0
2015-Aug-22 19:32N 35°27' E 139°43'0 0.0
2015-Aug-22 18:32N 35°27' E 139°43'0 0.0
2015-Aug-22 17:32N 35°27' E 139°43'0 0.0
2015-Aug-22 16:29N 35°27' E 139°43'0 0.0
2015-Aug-22 15:32N 35°27' E 139°43'0 0.0
2015-Aug-22 14:32N 35°27' E 139°43'0 0.0
2015-Aug-22 13:32N 35°27' E 139°43'0 0.1
2015-Aug-22 12:32N 35°27' E 139°43'0 0.0
2015-Aug-22 11:32N 35°27' E 139°43'0 0.0
2015-Aug-22 10:32N 35°27' E 139°43'0 0.0
2015-Aug-22 09:32N 35°27' E 139°43'0 0.0
2015-Aug-22 08:32N 35°27' E 139°43'0 0.0
2015-Aug-22 07:32N 35°27' E 139°43'0 0.0
2015-Aug-22 06:32N 35°27' E 139°43'0 0.0
2015-Aug-22 05:32N 35°27' E 139°43'0 0.0
2015-Aug-22 04:32N 35°27' E 139°43'0 0.0
2015-Aug-22 03:32N 35°27' E 139°43'0 0.0
2015-Aug-22 02:32N 35°27' E 139°43'0 0.0
2015-Aug-22 01:32N 35°27' E 139°43'0 0.0
2015-Aug-22 00:32N 35°27' E 139°43'0 0.0
2015-Aug-21 23:32N 35°27' E 139°43'0 0.0
2015-Aug-21 22:32N 35°27' E 139°43'0 0.0
2015-Aug-21 21:29N 35°27' E 139°43'0 0.0
2015-Aug-21 20:31N 35°27' E 139°43'0 0.0
2015-Aug-21 19:31N 35°27' E 139°43'0 0.0
2015-Aug-21 18:31N 35°27' E 139°43'0 0.0
2015-Aug-21 17:31N 35°27' E 139°43'0 0.0
2015-Aug-21 16:31N 35°27' E 139°43'0 0.0
2015-Aug-21 15:31N 35°27' E 139°43'0 0.0
2015-Aug-21 14:31N 35°27' E 139°43'0 0.0
2015-Aug-21 13:22N 35°27' E 139°43'0 0.0
2015-Aug-21 12:31N 35°27' E 139°43'0 0.0
2015-Aug-21 11:31N 35°27' E 139°43'0 0.0
2015-Aug-21 10:31N 35°27' E 139°43'0 0.0
2015-Aug-21 09:31N 35°27' E 139°43'3 3.3
2015-Aug-21 08:33N 35°25' E 139°46'9 8.4
2015-Aug-21 07:32N 35°16' E 139°46'10 9.8
2015-Aug-21 06:33N 35°07' E 139°46'17 5.8
2015-Aug-21 03:33N 34°58' E 140°04'27 8.9
2015-Aug-21 00:29N 35°15' E 140°30'  
Track history (hours):
 
Tides and Currents Weather Stations Pressure Air Temp Water Temp Dewpoint Dewpoint Depression Visibility Wind Speed Wind Dir Waves Ship Positions

Honghai

Last reported at 2015-Aug-27 22:26 UTC. Time now 2015-Aug-31 13:24 UTC.
Position N 34°14' E 134°60'.

Length 72 m; draft 4 m.

Type: Cargo ship. MMSI: 515501000.

Date/timePositionNaut miles runAvg speedWind from/ knotsBaromVisibWave heightAir tempDewpointWater temp
2015-Aug-27 22:26N 34°14' E 134°60'235 7.5
2015-Aug-26 15:19N 35°04' E 139°38'7 8.7
2015-Aug-26 14:33N 35°09' E 139°44'9 8.5
2015-Aug-26 13:33N 35°17' E 139°45'8 8.1
2015-Aug-26 12:33N 35°25' E 139°45'4 3.8
2015-Aug-26 11:33N 35°28' E 139°48'0 0.0
2015-Aug-26 10:33N 35°28' E 139°48'0 0.0
2015-Aug-26 09:33N 35°28' E 139°48'0 0.0
2015-Aug-26 08:33N 35°28' E 139°48'0 0.0
2015-Aug-26 07:33N 35°28' E 139°48'0 0.0
2015-Aug-26 06:33N 35°28' E 139°48'0 0.0
2015-Aug-26 05:30N 35°28' E 139°48'0 0.0
2015-Aug-26 04:33N 35°28' E 139°48'0 0.0
2015-Aug-26 03:33N 35°28' E 139°48'0 0.0
2015-Aug-26 02:33N 35°28' E 139°48'0 0.0
2015-Aug-26 01:33N 35°28' E 139°48'0 0.0
2015-Aug-26 00:33N 35°28' E 139°48'0 0.0
2015-Aug-25 23:33N 35°28' E 139°48'0 0.0
2015-Aug-25 22:33N 35°28' E 139°48'0 0.0
2015-Aug-25 21:32N 35°28' E 139°48'0 0.0
2015-Aug-25 20:32N 35°28' E 139°48'0 0.0
2015-Aug-25 19:32N 35°28' E 139°48'0 0.0
2015-Aug-25 18:32N 35°28' E 139°48'0 0.0
2015-Aug-25 17:32N 35°28' E 139°48'0 0.0
2015-Aug-25 16:32N 35°28' E 139°48'0 0.0
2015-Aug-25 15:32N 35°28' E 139°48'0 0.0
2015-Aug-25 14:32N 35°28' E 139°48'0 0.0
2015-Aug-25 13:32N 35°28' E 139°48'0 0.0
2015-Aug-25 12:32N 35°28' E 139°48'0 0.0
2015-Aug-25 11:32N 35°28' E 139°48'0 0.0
2015-Aug-25 10:29N 35°28' E 139°48'0 0.0
2015-Aug-25 09:29N 35°28' E 139°48'0 0.0
2015-Aug-25 08:29N 35°28' E 139°48'0 0.0
2015-Aug-25 07:29N 35°28' E 139°48'0 0.0
2015-Aug-25 06:29N 35°28' E 139°48'4 3.8
2015-Aug-25 05:34N 35°31' E 139°45'0 0.0
2015-Aug-25 04:31N 35°31' E 139°45'0 0.0
2015-Aug-25 03:31N 35°31' E 139°45'0 0.0
2015-Aug-25 02:31N 35°31' E 139°45'0 0.0
2015-Aug-25 01:31N 35°31' E 139°45'0 0.0
2015-Aug-25 00:31N 35°31' E 139°45'0 0.0
2015-Aug-24 23:31N 35°31' E 139°45'0 0.0
2015-Aug-24 22:31N 35°31' E 139°45'0 0.0
2015-Aug-24 21:31N 35°31' E 139°45'0 0.0
2015-Aug-24 20:31N 35°31' E 139°45'0 0.0
2015-Aug-24 19:31N 35°31' E 139°45'0 0.0
2015-Aug-24 18:31N 35°31' E 139°45'0 0.0
2015-Aug-24 17:31N 35°31' E 139°45'0 0.0
2015-Aug-24 16:31N 35°31' E 139°45'0 0.0
2015-Aug-24 15:31N 35°31' E 139°45'0 0.0
2015-Aug-24 14:31N 35°31' E 139°45'0 0.0
2015-Aug-24 13:31N 35°31' E 139°45'0 0.0
2015-Aug-24 12:31N 35°31' E 139°45'0 0.0
2015-Aug-24 11:31N 35°31' E 139°45'0 0.0
2015-Aug-24 10:28N 35°31' E 139°45'0 0.0
2015-Aug-24 09:31N 35°31' E 139°45'0 0.0
2015-Aug-24 08:28N 35°31' E 139°45'0 0.0
2015-Aug-24 07:31N 35°31' E 139°45'0 0.0
2015-Aug-24 06:31N 35°31' E 139°45'0 0.0
2015-Aug-24 05:31N 35°31' E 139°45'0 0.0
2015-Aug-24 04:31N 35°31' E 139°45'0 0.0
2015-Aug-24 03:31N 35°31' E 139°45'0 0.0
2015-Aug-24 02:31N 35°31' E 139°45'0 0.0
2015-Aug-24 01:31N 35°31' E 139°45'0 0.0
2015-Aug-24 00:31N 35°31' E 139°45'0 0.0
2015-Aug-23 23:28N 35°31' E 139°45'0 0.0
2015-Aug-23 22:31N 35°31' E 139°45'1 0.6
2015-Aug-23 21:33N 35°30' E 139°45'4 3.7
2015-Aug-23 20:33N 35°27' E 139°43'0 0.0
2015-Aug-23 19:33N 35°27' E 139°43'0 0.0
2015-Aug-23 18:33N 35°27' E 139°43'0 0.0
2015-Aug-23 17:33N 35°27' E 139°43'0 0.0
2015-Aug-23 16:30N 35°27' E 139°43'0 0.0
2015-Aug-23 15:33N 35°27' E 139°43'0 0.0
2015-Aug-23 14:33N 35°27' E 139°43'0 0.0
2015-Aug-23 13:33N 35°27' E 139°43'0 0.0
2015-Aug-23 12:33N 35°27' E 139°43'0 0.0
2015-Aug-23 11:33N 35°27' E 139°43'0 0.0
2015-Aug-23 10:33N 35°27' E 139°43'0 0.0
2015-Aug-23 09:30N 35°27' E 139°43'0 0.0
2015-Aug-23 08:32N 35°27' E 139°43'0 0.0
2015-Aug-23 07:32N 35°27' E 139°43'0 0.0
2015-Aug-23 06:32N 35°27' E 139°43'0 0.0
2015-Aug-23 05:32N 35°27' E 139°43'0 0.0
2015-Aug-23 04:29N 35°27' E 139°43'0 0.0
2015-Aug-23 03:32N 35°27' E 139°43'0 0.0
2015-Aug-23 02:32N 35°27' E 139°43'0 0.0
2015-Aug-23 01:32N 35°27' E 139°43'0 0.0
2015-Aug-23 00:32N 35°27' E 139°43'0 0.1
2015-Aug-22 23:32N 35°27' E 139°43'0 0.0
2015-Aug-22 22:23N 35°27' E 139°43'0 0.0
2015-Aug-22 21:26N 35°27' E 139°43'0 0.0
2015-Aug-22 20:32N 35°27' E 139°43'0 0.0
2015-Aug-22 19:32N 35°27' E 139°43'0 0.0
2015-Aug-22 18:32N 35°27' E 139°43'0 0.0
2015-Aug-22 17:32N 35°27' E 139°43'0 0.0
2015-Aug-22 16:29N 35°27' E 139°43'0 0.0
2015-Aug-22 15:32N 35°27' E 139°43'0 0.0
2015-Aug-22 14:32N 35°27' E 139°43'0 0.0
2015-Aug-22 13:32N 35°27' E 139°43'0 0.1
2015-Aug-22 12:32N 35°27' E 139°43'0 0.0
2015-Aug-22 11:32N 35°27' E 139°43'0 0.0
2015-Aug-22 10:32N 35°27' E 139°43'0 0.0
2015-Aug-22 09:32N 35°27' E 139°43'0 0.0
2015-Aug-22 08:32N 35°27' E 139°43'0 0.0
2015-Aug-22 07:32N 35°27' E 139°43'0 0.0
2015-Aug-22 06:32N 35°27' E 139°43'0 0.0
2015-Aug-22 05:32N 35°27' E 139°43'0 0.0
2015-Aug-22 04:32N 35°27' E 139°43'0 0.0
2015-Aug-22 03:32N 35°27' E 139°43'0 0.0
2015-Aug-22 02:32N 35°27' E 139°43'0 0.0
2015-Aug-22 01:32N 35°27' E 139°43'0 0.0
2015-Aug-22 00:32N 35°27' E 139°43'0 0.0
2015-Aug-21 23:32N 35°27' E 139°43'0 0.0
2015-Aug-21 22:32N 35°27' E 139°43'0 0.0
2015-Aug-21 21:29N 35°27' E 139°43'0 0.0
2015-Aug-21 20:31N 35°27' E 139°43'0 0.0
2015-Aug-21 19:31N 35°27' E 139°43'0 0.0
2015-Aug-21 18:31N 35°27' E 139°43'0 0.0
2015-Aug-21 17:31N 35°27' E 139°43'0 0.0
2015-Aug-21 16:31N 35°27' E 139°43'0 0.0
2015-Aug-21 15:31N 35°27' E 139°43'0 0.0
2015-Aug-21 14:31N 35°27' E 139°43'0 0.0
2015-Aug-21 13:22N 35°27' E 139°43'0 0.0
2015-Aug-21 12:31N 35°27' E 139°43'0 0.0
2015-Aug-21 11:31N 35°27' E 139°43'0 0.0
2015-Aug-21 10:31N 35°27' E 139°43'0 0.0
2015-Aug-21 09:31N 35°27' E 139°43'3 3.3
2015-Aug-21 08:33N 35°25' E 139°46'9 8.4
2015-Aug-21 07:32N 35°16' E 139°46'10 9.8
2015-Aug-21 06:33N 35°07' E 139°46'17 5.8
2015-Aug-21 03:33N 34°58' E 140°04'27 8.9
2015-Aug-21 00:29N 35°15' E 140°30'  

Dump ship's entire track history